sensor_id;sensor_type;location;lat;lon;timestamp;temperature;humidity
69464;DHT22;56665;41.106;16.688;2023-06-19T00:00:49;21.14;56.15
69464;DHT22;56665;41.106;16.688;2023-06-19T00:03:53;21.11;55.84
69464;DHT22;56665;41.106;16.688;2023-06-19T00:06:59;21.10;55.52
69464;DHT22;56665;41.106;16.688;2023-06-19T00:10:04;21.08;55.47
69464;DHT22;56665;41.106;16.688;2023-06-19T00:13:07;21.07;55.53
69464;DHT22;56665;41.106;16.688;2023-06-19T00:16:11;21.06;56.12
69464;DHT22;56665;41.106;16.688;2023-06-19T00:19:15;21.06;56.24
69464;DHT22;56665;41.106;16.688;2023-06-19T00:22:19;21.00;56.20
69464;DHT22;56665;41.106;16.688;2023-06-19T00:25:24;21.00;55.94
69464;DHT22;56665;41.106;16.688;2023-06-19T00:28:28;20.97;56.01
69464;DHT22;56665;41.106;16.688;2023-06-19T00:31:33;20.93;55.98
69464;DHT22;56665;41.106;16.688;2023-06-19T00:34:40;20.90;56.34
69464;DHT22;56665;41.106;16.688;2023-06-19T00:37:46;20.86;56.48
69464;DHT22;56665;41.106;16.688;2023-06-19T00:40:49;20.83;56.34
69464;DHT22;56665;41.106;16.688;2023-06-19T00:43:53;20.84;55.57
69464;DHT22;56665;41.106;16.688;2023-06-19T00:47:00;20.87;55.52
69464;DHT22;56665;41.106;16.688;2023-06-19T00:50:06;20.91;55.13
69464;DHT22;56665;41.106;16.688;2023-06-19T00:53:10;20.93;55.43
69464;DHT22;56665;41.106;16.688;2023-06-19T00:56:15;20.91;54.92
69464;DHT22;56665;41.106;16.688;2023-06-19T00:59:21;20.91;55.27
69464;DHT22;56665;41.106;16.688;2023-06-19T01:02:26;20.90;55.18
69464;DHT22;56665;41.106;16.688;2023-06-19T01:05:29;20.86;55.02
69464;DHT22;56665;41.106;16.688;2023-06-19T01:09:07;20.87;54.96
69464;DHT22;56665;41.106;16.688;2023-06-19T01:12:18;20.87;54.96
69464;DHT22;56665;41.106;16.688;2023-06-19T01:15:24;20.86;54.49
69464;DHT22;56665;41.106;16.688;2023-06-19T01:18:29;20.84;54.43
69464;DHT22;56665;41.106;16.688;2023-06-19T01:21:34;20.81;54.62
69464;DHT22;56665;41.106;16.688;2023-06-19T01:24:41;20.75;54.96
69464;DHT22;56665;41.106;16.688;2023-06-19T01:27:45;20.75;54.64
69464;DHT22;56665;41.106;16.688;2023-06-19T01:30:51;20.69;54.85
69464;DHT22;56665;41.106;16.688;2023-06-19T01:33:57;20.69;55.16
69464;DHT22;56665;41.106;16.688;2023-06-19T01:37:02;20.73;54.76
69464;DHT22;56665;41.106;16.688;2023-06-19T01:40:10;20.70;54.65
69464;DHT22;56665;41.106;16.688;2023-06-19T01:43:15;20.69;54.85
69464;DHT22;56665;41.106;16.688;2023-06-19T01:46:19;20.69;54.89
69464;DHT22;56665;41.106;16.688;2023-06-19T01:49:23;20.64;54.58
69464;DHT22;56665;41.106;16.688;2023-06-19T01:52:27;20.64;54.72
69464;DHT22;56665;41.106;16.688;2023-06-19T01:55:31;20.61;54.83
69464;DHT22;56665;41.106;16.688;2023-06-19T01:58:35;20.60;54.57
69464;DHT22;56665;41.106;16.688;2023-06-19T02:01:40;20.59;54.61
69464;DHT22;56665;41.106;16.688;2023-06-19T02:04:44;20.60;54.44
69464;DHT22;56665;41.106;16.688;2023-06-19T02:07:47;20.60;54.22
69464;DHT22;56665;41.106;16.688;2023-06-19T02:10:53;20.60;54.31
69464;DHT22;56665;41.106;16.688;2023-06-19T02:13:57;20.59;54.47
69464;DHT22;56665;41.106;16.688;2023-06-19T02:17:00;20.56;54.30
69464;DHT22;56665;41.106;16.688;2023-06-19T02:20:05;20.52;54.10
69464;DHT22;56665;41.106;16.688;2023-06-19T02:23:14;20.52;54.23
69464;DHT22;56665;41.106;16.688;2023-06-19T02:26:19;20.47;54.32
69464;DHT22;56665;41.106;16.688;2023-06-19T02:29:24;20.46;54.44
69464;DHT22;56665;41.106;16.688;2023-06-19T02:32:29;20.46;54.33
69464;DHT22;56665;41.106;16.688;2023-06-19T02:35:32;20.46;54.08
69464;DHT22;56665;41.106;16.688;2023-06-19T02:38:36;20.45;53.71
69464;DHT22;56665;41.106;16.688;2023-06-19T02:41:40;20.43;53.77
69464;DHT22;56665;41.106;16.688;2023-06-19T02:44:47;20.43;53.56
69464;DHT22;56665;41.106;16.688;2023-06-19T02:47:51;20.39;53.75
69464;DHT22;56665;41.106;16.688;2023-06-19T02:50:55;20.42;53.66
69464;DHT22;56665;41.106;16.688;2023-06-19T02:53:59;20.42;52.95
69464;DHT22;56665;41.106;16.688;2023-06-19T02:57:03;20.42;52.60
69464;DHT22;56665;41.106;16.688;2023-06-19T03:00:07;20.46;52.94
69464;DHT22;56665;41.106;16.688;2023-06-19T03:03:14;20.42;52.88
69464;DHT22;56665;41.106;16.688;2023-06-19T03:06:18;20.46;52.91
69464;DHT22;56665;41.106;16.688;2023-06-19T03:09:21;20.47;52.83
69464;DHT22;56665;41.106;16.688;2023-06-19T03:12:25;20.46;53.12
69464;DHT22;56665;41.106;16.688;2023-06-19T03:15:29;20.46;52.95
69464;DHT22;56665;41.106;16.688;2023-06-19T03:18:33;20.47;52.92
69464;DHT22;56665;41.106;16.688;2023-06-19T03:21:37;20.47;52.76
69464;DHT22;56665;41.106;16.688;2023-06-19T03:24:44;20.50;52.89
69464;DHT22;56665;41.106;16.688;2023-06-19T03:27:58;20.53;52.83
69464;DHT22;56665;41.106;16.688;2023-06-19T03:31:02;20.52;52.90
69464;DHT22;56665;41.106;16.688;2023-06-19T03:34:06;20.49;53.16
69464;DHT22;56665;41.106;16.688;2023-06-19T03:37:11;20.56;52.80
69464;DHT22;56665;41.106;16.688;2023-06-19T03:40:16;20.60;52.73
69464;DHT22;56665;41.106;16.688;2023-06-19T03:43:23;20.63;52.35
69464;DHT22;56665;41.106;16.688;2023-06-19T03:46:26;20.70;52.06
69464;DHT22;56665;41.106;16.688;2023-06-19T03:49:32;20.72;52.32
69464;DHT22;56665;41.106;16.688;2023-06-19T03:52:37;20.79;52.26
69464;DHT22;56665;41.106;16.688;2023-06-19T03:55:43;20.81;51.72
69464;DHT22;56665;41.106;16.688;2023-06-19T03:58:49;20.87;51.89
69464;DHT22;56665;41.106;16.688;2023-06-19T04:01:54;20.97;51.41
69464;DHT22;56665;41.106;16.688;2023-06-19T04:04:57;21.01;51.90
69464;DHT22;56665;41.106;16.688;2023-06-19T04:08:03;21.12;51.56
69464;DHT22;56665;41.106;16.688;2023-06-19T04:11:08;21.21;51.42
69464;DHT22;56665;41.106;16.688;2023-06-19T04:14:11;21.30;51.25
69464;DHT22;56665;41.106;16.688;2023-06-19T04:17:15;21.37;51.22
69464;DHT22;56665;41.106;16.688;2023-06-19T04:20:20;21.45;51.24
69464;DHT22;56665;41.106;16.688;2023-06-19T04:23:24;21.54;50.98
69464;DHT22;56665;41.106;16.688;2023-06-19T04:26:29;21.66;50.86
69464;DHT22;56665;41.106;16.688;2023-06-19T04:29:34;21.83;50.80
69464;DHT22;56665;41.106;16.688;2023-06-19T04:32:39;21.92;50.41
69464;DHT22;56665;41.106;16.688;2023-06-19T04:35:43;22.04;49.95
69464;DHT22;56665;41.106;16.688;2023-06-19T04:38:48;22.18;49.92
69464;DHT22;56665;41.106;16.688;2023-06-19T04:41:51;22.30;49.90
69464;DHT22;56665;41.106;16.688;2023-06-19T04:44:55;22.41;49.79
69464;DHT22;56665;41.106;16.688;2023-06-19T04:48:00;22.57;49.89
69464;DHT22;56665;41.106;16.688;2023-06-19T04:51:06;22.72;49.57
69464;DHT22;56665;41.106;16.688;2023-06-19T04:54:10;22.85;49.68
69464;DHT22;56665;41.106;16.688;2023-06-19T04:57:14;23.00;49.41
69464;DHT22;56665;41.106;16.688;2023-06-19T05:00:18;23.15;49.34
69464;DHT22;56665;41.106;16.688;2023-06-19T05:03:26;23.33;49.00
69464;DHT22;56665;41.106;16.688;2023-06-19T05:06:30;23.46;48.80
69464;DHT22;56665;41.106;16.688;2023-06-19T05:09:35;23.64;48.64
69464;DHT22;56665;41.106;16.688;2023-06-19T05:12:38;23.81;48.39
69464;DHT22;56665;41.106;16.688;2023-06-19T05:15:42;24.02;48.25
69464;DHT22;56665;41.106;16.688;2023-06-19T05:18:46;24.23;48.27
69464;DHT22;56665;41.106;16.688;2023-06-19T05:21:50;24.45;48.30
69464;DHT22;56665;41.106;16.688;2023-06-19T05:24:53;24.64;48.24
69464;DHT22;56665;41.106;16.688;2023-06-19T05:27:57;24.84;48.06
69464;DHT22;56665;41.106;16.688;2023-06-19T05:31:01;25.13;47.36
69464;DHT22;56665;41.106;16.688;2023-06-19T05:34:05;25.41;47.11
69464;DHT22;56665;41.106;16.688;2023-06-19T05:37:09;25.66;46.71
69464;DHT22;56665;41.106;16.688;2023-06-19T05:40:12;25.99;46.30
69464;DHT22;56665;41.106;16.688;2023-06-19T05:43:16;26.31;45.88
69464;DHT22;56665;41.106;16.688;2023-06-19T05:46:20;26.67;45.39
69464;DHT22;56665;41.106;16.688;2023-06-19T05:49:23;26.96;44.81
69464;DHT22;56665;41.106;16.688;2023-06-19T05:52:27;27.26;44.53
69464;DHT22;56665;41.106;16.688;2023-06-19T05:55:31;27.60;43.88
69464;DHT22;56665;41.106;16.688;2023-06-19T05:58:35;27.92;43.42
69464;DHT22;56665;41.106;16.688;2023-06-19T06:01:38;28.24;43.20
69464;DHT22;56665;41.106;16.688;2023-06-19T06:04:42;28.56;42.54
69464;DHT22;56665;41.106;16.688;2023-06-19T06:07:46;28.83;42.50
69464;DHT22;56665;41.106;16.688;2023-06-19T06:10:50;29.06;42.22
69464;DHT22;56665;41.106;16.688;2023-06-19T06:13:53;29.27;42.19
69464;DHT22;56665;41.106;16.688;2023-06-19T06:16:57;29.57;41.78
69464;DHT22;56665;41.106;16.688;2023-06-19T06:20:01;29.86;41.41
69464;DHT22;56665;41.106;16.688;2023-06-19T06:23:05;30.17;40.55
69464;DHT22;56665;41.106;16.688;2023-06-19T06:26:10;30.38;39.90
69464;DHT22;56665;41.106;16.688;2023-06-19T06:29:15;30.61;40.33
69464;DHT22;56665;41.106;16.688;2023-06-19T06:32:20;30.88;40.47
69464;DHT22;56665;41.106;16.688;2023-06-19T06:35:24;31.25;40.07
69464;DHT22;56665;41.106;16.688;2023-06-19T06:38:28;31.54;39.64
69464;DHT22;56665;41.106;16.688;2023-06-19T06:41:31;31.76;38.27
69464;DHT22;56665;41.106;16.688;2023-06-19T06:44:35;32.10;37.48
69464;DHT22;56665;41.106;16.688;2023-06-19T06:47:39;32.38;37.06
69464;DHT22;56665;41.106;16.688;2023-06-19T06:50:45;32.65;37.02
69464;DHT22;56665;41.106;16.688;2023-06-19T06:53:50;33.23;36.38
69464;DHT22;56665;41.106;16.688;2023-06-19T06:56:55;33.92;34.64
69464;DHT22;56665;41.106;16.688;2023-06-19T07:00:04;35.15;33.70
69464;DHT22;56665;41.106;16.688;2023-06-19T07:03:08;36.56;32.03
69464;DHT22;56665;41.106;16.688;2023-06-19T07:06:12;38.40;30.07
69464;DHT22;56665;41.106;16.688;2023-06-19T07:09:18;40.12;28.57
69464;DHT22;56665;41.106;16.688;2023-06-19T07:12:21;41.65;27.20
69464;DHT22;56665;41.106;16.688;2023-06-19T07:15:25;42.95;25.76
69464;DHT22;56665;41.106;16.688;2023-06-19T07:18:29;43.89;25.29
69464;DHT22;56665;41.106;16.688;2023-06-19T07:21:32;44.61;25.16
69464;DHT22;56665;41.106;16.688;2023-06-19T07:24:36;45.16;24.50
69464;DHT22;56665;41.106;16.688;2023-06-19T07:27:40;45.72;23.62
69464;DHT22;56665;41.106;16.688;2023-06-19T07:30:44;46.09;22.86
69464;DHT22;56665;41.106;16.688;2023-06-19T07:33:51;46.05;23.08
69464;DHT22;56665;41.106;16.688;2023-06-19T07:36:55;46.04;23.00
69464;DHT22;56665;41.106;16.688;2023-06-19T07:39:58;46.00;22.59
69464;DHT22;56665;41.106;16.688;2023-06-19T07:43:02;45.84;23.16
69464;DHT22;56665;41.106;16.688;2023-06-19T07:46:06;45.97;21.64
69464;DHT22;56665;41.106;16.688;2023-06-19T07:49:10;46.27;21.33
69464;DHT22;56665;41.106;16.688;2023-06-19T07:52:13;46.09;21.55
69464;DHT22;56665;41.106;16.688;2023-06-19T07:55:17;46.23;21.24
69464;DHT22;56665;41.106;16.688;2023-06-19T07:58:23;46.64;20.97
69464;DHT22;56665;41.106;16.688;2023-06-19T08:01:26;46.37;20.57
69464;DHT22;56665;41.106;16.688;2023-06-19T08:04:30;46.28;20.60
69464;DHT22;56665;41.106;16.688;2023-06-19T08:07:35;46.65;20.17
69464;DHT22;56665;41.106;16.688;2023-06-19T08:10:39;46.27;20.60
69464;DHT22;56665;41.106;16.688;2023-06-19T08:13:44;45.94;19.92
69464;DHT22;56665;41.106;16.688;2023-06-19T08:16:48;46.24;19.60
69464;DHT22;56665;41.106;16.688;2023-06-19T08:19:51;46.00;19.74
69464;DHT22;56665;41.106;16.688;2023-06-19T08:22:55;45.63;20.06
69464;DHT22;56665;41.106;16.688;2023-06-19T08:25:59;45.87;20.12
69464;DHT22;56665;41.106;16.688;2023-06-19T08:29:03;45.32;20.12
69464;DHT22;56665;41.106;16.688;2023-06-19T08:32:07;44.68;20.28
69464;DHT22;56665;41.106;16.688;2023-06-19T08:35:12;45.05;19.64
69464;DHT22;56665;41.106;16.688;2023-06-19T08:38:16;44.68;19.72
69464;DHT22;56665;41.106;16.688;2023-06-19T08:41:20;44.37;19.91
69464;DHT22;56665;41.106;16.688;2023-06-19T08:44:25;43.79;20.66
69464;DHT22;56665;41.106;16.688;2023-06-19T08:47:32;43.60;20.16
69464;DHT22;56665;41.106;16.688;2023-06-19T08:50:37;43.66;20.09
69464;DHT22;56665;41.106;16.688;2023-06-19T08:53:47;43.82;20.16
69464;DHT22;56665;41.106;16.688;2023-06-19T08:56:53;43.80;19.75
69464;DHT22;56665;41.106;16.688;2023-06-19T08:59:57;43.17;20.74
69464;DHT22;56665;41.106;16.688;2023-06-19T09:03:02;43.14;19.70
69464;DHT22;56665;41.106;16.688;2023-06-19T09:06:07;43.02;20.00
69464;DHT22;56665;41.106;16.688;2023-06-19T09:09:11;42.53;20.99
69464;DHT22;56665;41.106;16.688;2023-06-19T09:12:16;41.65;20.29
69464;DHT22;56665;41.106;16.688;2023-06-19T09:15:37;40.82;21.55
69464;DHT22;56665;41.106;16.688;2023-06-19T09:18:47;40.35;21.89
69464;DHT22;56665;41.106;16.688;2023-06-19T09:22:00;39.80;22.99
69464;DHT22;56665;41.106;16.688;2023-06-19T09:25:04;39.36;22.53
69464;DHT22;56665;41.106;16.688;2023-06-19T09:28:26;38.91;21.62
69464;DHT22;56665;41.106;16.688;2023-06-19T09:31:33;38.72;22.38
69464;DHT22;56665;41.106;16.688;2023-06-19T09:34:37;39.18;22.55
69464;DHT22;56665;41.106;16.688;2023-06-19T09:37:41;39.03;22.70
69464;DHT22;56665;41.106;16.688;2023-06-19T09:40:47;38.71;22.49
69464;DHT22;56665;41.106;16.688;2023-06-19T09:43:54;38.50;23.24
69464;DHT22;56665;41.106;16.688;2023-06-19T09:47:04;38.74;22.98
69464;DHT22;56665;41.106;16.688;2023-06-19T09:50:14;38.89;22.41
69464;DHT22;56665;41.106;16.688;2023-06-19T09:53:19;38.30;22.83
69464;DHT22;56665;41.106;16.688;2023-06-19T09:56:24;37.80;22.67
69464;DHT22;56665;41.106;16.688;2023-06-19T09:59:28;37.68;22.99
69464;DHT22;56665;41.106;16.688;2023-06-19T10:02:32;37.74;22.64
69464;DHT22;56665;41.106;16.688;2023-06-19T10:05:37;37.68;22.82
69464;DHT22;56665;41.106;16.688;2023-06-19T10:08:41;36.67;23.16
69464;DHT22;56665;41.106;16.688;2023-06-19T10:11:48;36.32;23.86
69464;DHT22;56665;41.106;16.688;2023-06-19T10:14:54;36.09;22.86
69464;DHT22;56665;41.106;16.688;2023-06-19T10:18:06;36.23;24.13
69464;DHT22;56665;41.106;16.688;2023-06-19T10:21:21;36.60;23.31
69464;DHT22;56665;41.106;16.688;2023-06-19T10:24:26;36.73;22.56
69464;DHT22;56665;41.106;16.688;2023-06-19T10:27:34;36.78;23.21
69464;DHT22;56665;41.106;16.688;2023-06-19T10:30:41;37.04;22.30
69464;DHT22;56665;41.106;16.688;2023-06-19T10:33:44;37.08;21.86
69464;DHT22;56665;41.106;16.688;2023-06-19T10:36:48;37.21;22.00
69464;DHT22;56665;41.106;16.688;2023-06-19T10:39:53;36.88;21.60
69464;DHT22;56665;41.106;16.688;2023-06-19T10:42:57;36.70;21.70
69464;DHT22;56665;41.106;16.688;2023-06-19T10:46:02;36.85;22.24
69464;DHT22;56665;41.106;16.688;2023-06-19T10:49:08;36.87;22.21
69464;DHT22;56665;41.106;16.688;2023-06-19T10:52:13;37.02;22.02
69464;DHT22;56665;41.106;16.688;2023-06-19T10:55:19;37.02;22.01
69464;DHT22;56665;41.106;16.688;2023-06-19T10:58:23;37.01;21.91
69464;DHT22;56665;41.106;16.688;2023-06-19T11:01:52;36.57;21.85
69464;DHT22;56665;41.106;16.688;2023-06-19T11:04:56;36.47;21.90
69464;DHT22;56665;41.106;16.688;2023-06-19T11:08:00;36.63;22.21
69464;DHT22;56665;41.106;16.688;2023-06-19T11:11:04;36.80;22.37
69464;DHT22;56665;41.106;16.688;2023-06-19T11:14:08;37.02;22.19
69464;DHT22;56665;41.106;16.688;2023-06-19T11:17:12;36.91;21.53
69464;DHT22;56665;41.106;16.688;2023-06-19T11:20:16;36.68;21.07
69464;DHT22;56665;41.106;16.688;2023-06-19T11:23:29;36.27;21.81
69464;DHT22;56665;41.106;16.688;2023-06-19T11:26:40;36.32;23.26
69464;DHT22;56665;41.106;16.688;2023-06-19T11:29:47;36.13;22.47
69464;DHT22;56665;41.106;16.688;2023-06-19T11:32:51;36.16;23.27
69464;DHT22;56665;41.106;16.688;2023-06-19T11:36:00;36.00;22.38
69464;DHT22;56665;41.106;16.688;2023-06-19T11:39:10;35.95;22.52
69464;DHT22;56665;41.106;16.688;2023-06-19T11:42:15;36.19;22.76
69464;DHT22;56665;41.106;16.688;2023-06-19T11:45:22;35.88;23.42
69464;DHT22;56665;41.106;16.688;2023-06-19T11:48:27;35.81;22.55
69464;DHT22;56665;41.106;16.688;2023-06-19T11:51:30;35.82;22.62
69464;DHT22;56665;41.106;16.688;2023-06-19T11:54:35;35.92;23.05
69464;DHT22;56665;41.106;16.688;2023-06-19T11:57:39;35.65;23.31
69464;DHT22;56665;41.106;16.688;2023-06-19T12:00:43;35.82;23.93
69464;DHT22;56665;41.106;16.688;2023-06-19T12:03:47;36.07;23.05
69464;DHT22;56665;41.106;16.688;2023-06-19T12:06:52;36.26;23.52
69464;DHT22;56665;41.106;16.688;2023-06-19T12:09:56;36.53;23.37
69464;DHT22;56665;41.106;16.688;2023-06-19T12:13:00;36.56;21.96
69464;DHT22;56665;41.106;16.688;2023-06-19T12:16:04;36.47;21.65
69464;DHT22;56665;41.106;16.688;2023-06-19T12:19:07;36.19;22.15
69464;DHT22;56665;41.106;16.688;2023-06-19T12:22:11;35.88;21.54
69464;DHT22;56665;41.106;16.688;2023-06-19T12:25:15;35.68;21.83
69464;DHT22;56665;41.106;16.688;2023-06-19T12:28:18;35.68;21.00
69464;DHT22;56665;41.106;16.688;2023-06-19T12:31:22;35.45;22.00
69464;DHT22;56665;41.106;16.688;2023-06-19T12:34:26;35.42;24.23
69464;DHT22;56665;41.106;16.688;2023-06-19T12:37:30;35.52;22.70
69464;DHT22;56665;41.106;16.688;2023-06-19T12:40:34;35.65;21.72
69464;DHT22;56665;41.106;16.688;2023-06-19T12:43:38;35.61;21.24
69464;DHT22;56665;41.106;16.688;2023-06-19T12:46:42;35.41;21.93
69464;DHT22;56665;41.106;16.688;2023-06-19T12:49:45;35.41;22.45
69464;DHT22;56665;41.106;16.688;2023-06-19T12:52:50;35.61;20.72
69464;DHT22;56665;41.106;16.688;2023-06-19T12:55:53;35.90;21.17
69464;DHT22;56665;41.106;16.688;2023-06-19T12:58:57;35.95;20.88
69464;DHT22;56665;41.106;16.688;2023-06-19T13:02:01;35.74;20.87
69464;DHT22;56665;41.106;16.688;2023-06-19T13:05:11;35.48;20.47
69464;DHT22;56665;41.106;16.688;2023-06-19T13:08:15;35.54;21.10
69464;DHT22;56665;41.106;16.688;2023-06-19T13:11:19;35.38;21.56
69464;DHT22;56665;41.106;16.688;2023-06-19T13:14:23;35.24;21.51
69464;DHT22;56665;41.106;16.688;2023-06-19T13:17:26;35.48;22.35
69464;DHT22;56665;41.106;16.688;2023-06-19T13:20:30;35.81;21.01
69464;DHT22;56665;41.106;16.688;2023-06-19T13:23:35;35.96;21.51
69464;DHT22;56665;41.106;16.688;2023-06-19T13:26:39;35.92;21.45
69464;DHT22;56665;41.106;16.688;2023-06-19T13:29:44;35.84;21.36
69464;DHT22;56665;41.106;16.688;2023-06-19T13:32:47;35.31;21.50
69464;DHT22;56665;41.106;16.688;2023-06-19T13:35:51;35.14;21.95
69464;DHT22;56665;41.106;16.688;2023-06-19T13:38:56;35.27;22.23
69464;DHT22;56665;41.106;16.688;2023-06-19T13:42:00;35.57;21.81
69464;DHT22;56665;41.106;16.688;2023-06-19T13:45:04;35.31;21.93
69464;DHT22;56665;41.106;16.688;2023-06-19T13:48:08;35.07;21.60
69464;DHT22;56665;41.106;16.688;2023-06-19T13:51:12;34.89;21.56
69464;DHT22;56665;41.106;16.688;2023-06-19T13:54:19;34.89;22.39
69464;DHT22;56665;41.106;16.688;2023-06-19T13:57:24;34.55;21.65
69464;DHT22;56665;41.106;16.688;2023-06-19T14:00:28;34.55;22.50
69464;DHT22;56665;41.106;16.688;2023-06-19T14:03:32;34.76;22.04
69464;DHT22;56665;41.106;16.688;2023-06-19T14:06:35;34.69;22.76
69464;DHT22;56665;41.106;16.688;2023-06-19T14:09:41;34.70;23.50
69464;DHT22;56665;41.106;16.688;2023-06-19T14:12:45;34.80;23.00
69464;DHT22;56665;41.106;16.688;2023-06-19T14:15:49;34.86;23.24
69464;DHT22;56665;41.106;16.688;2023-06-19T14:18:53;35.07;22.32
69464;DHT22;56665;41.106;16.688;2023-06-19T14:21:57;34.70;22.32
69464;DHT22;56665;41.106;16.688;2023-06-19T14:25:00;34.60;22.46
69464;DHT22;56665;41.106;16.688;2023-06-19T14:28:05;34.45;22.51
69464;DHT22;56665;41.106;16.688;2023-06-19T14:31:09;34.39;22.43
69464;DHT22;56665;41.106;16.688;2023-06-19T14:34:13;34.35;22.96
69464;DHT22;56665;41.106;16.688;2023-06-19T14:37:17;34.29;22.82
69464;DHT22;56665;41.106;16.688;2023-06-19T14:40:22;34.26;22.60
69464;DHT22;56665;41.106;16.688;2023-06-19T14:43:26;34.18;23.01
69464;DHT22;56665;41.106;16.688;2023-06-19T14:46:30;33.87;23.32
69464;DHT22;56665;41.106;16.688;2023-06-19T14:49:35;33.78;24.12
69464;DHT22;56665;41.106;16.688;2023-06-19T14:52:38;33.60;23.64
69464;DHT22;56665;41.106;16.688;2023-06-19T14:55:43;33.44;23.90
69464;DHT22;56665;41.106;16.688;2023-06-19T14:58:49;33.41;24.58
69464;DHT22;56665;41.106;16.688;2023-06-19T15:01:53;33.27;24.57
69464;DHT22;56665;41.106;16.688;2023-06-19T15:04:58;33.34;24.63
69464;DHT22;56665;41.106;16.688;2023-06-19T15:08:03;33.07;24.14
69464;DHT22;56665;41.106;16.688;2023-06-19T15:11:08;32.86;24.40
69464;DHT22;56665;41.106;16.688;2023-06-19T15:14:12;32.76;24.76
69464;DHT22;56665;41.106;16.688;2023-06-19T15:17:16;32.55;24.62
69464;DHT22;56665;41.106;16.688;2023-06-19T15:20:20;32.38;24.66
69464;DHT22;56665;41.106;16.688;2023-06-19T15:23:25;32.27;25.07
69464;DHT22;56665;41.106;16.688;2023-06-19T15:26:31;32.17;26.23
69464;DHT22;56665;41.106;16.688;2023-06-19T15:29:35;32.07;25.29
69464;DHT22;56665;41.106;16.688;2023-06-19T15:32:39;31.98;25.75
69464;DHT22;56665;41.106;16.688;2023-06-19T15:35:43;31.90;25.73
69464;DHT22;56665;41.106;16.688;2023-06-19T15:38:50;31.69;25.44
69464;DHT22;56665;41.106;16.688;2023-06-19T15:41:55;31.53;25.87
69464;DHT22;56665;41.106;16.688;2023-06-19T15:45:00;31.37;26.37
69464;DHT22;56665;41.106;16.688;2023-06-19T15:48:05;31.29;26.12
69464;DHT22;56665;41.106;16.688;2023-06-19T15:51:09;31.16;26.73
69464;DHT22;56665;41.106;16.688;2023-06-19T15:54:13;31.02;26.53
69464;DHT22;56665;41.106;16.688;2023-06-19T15:57:17;30.96;26.49
69464;DHT22;56665;41.106;16.688;2023-06-19T16:00:23;30.79;26.87
69464;DHT22;56665;41.106;16.688;2023-06-19T16:03:29;30.75;26.69
69464;DHT22;56665;41.106;16.688;2023-06-19T16:06:36;30.65;26.86
69464;DHT22;56665;41.106;16.688;2023-06-19T16:09:43;30.61;27.29
69464;DHT22;56665;41.106;16.688;2023-06-19T16:12:47;30.51;26.97
69464;DHT22;56665;41.106;16.688;2023-06-19T16:15:52;30.43;27.18
69464;DHT22;56665;41.106;16.688;2023-06-19T16:18:57;30.27;27.35
69464;DHT22;56665;41.106;16.688;2023-06-19T16:22:00;30.26;27.48
69464;DHT22;56665;41.106;16.688;2023-06-19T16:25:05;30.16;27.00
69464;DHT22;56665;41.106;16.688;2023-06-19T16:28:10;30.06;27.10
69464;DHT22;56665;41.106;16.688;2023-06-19T16:31:14;29.98;27.63
69464;DHT22;56665;41.106;16.688;2023-06-19T16:34:17;29.85;28.26
69464;DHT22;56665;41.106;16.688;2023-06-19T16:37:21;29.82;27.85
69464;DHT22;56665;41.106;16.688;2023-06-19T16:40:25;29.78;27.99
69464;DHT22;56665;41.106;16.688;2023-06-19T16:43:29;29.72;28.00
69464;DHT22;56665;41.106;16.688;2023-06-19T16:46:34;29.63;28.04
69464;DHT22;56665;41.106;16.688;2023-06-19T16:49:40;29.55;28.52
69464;DHT22;56665;41.106;16.688;2023-06-19T16:52:44;29.52;29.04
69464;DHT22;56665;41.106;16.688;2023-06-19T16:55:48;29.51;28.55
69464;DHT22;56665;41.106;16.688;2023-06-19T16:58:53;29.45;27.98
69464;DHT22;56665;41.106;16.688;2023-06-19T17:01:56;29.41;27.50
69464;DHT22;56665;41.106;16.688;2023-06-19T17:05:00;29.34;28.37
69464;DHT22;56665;41.106;16.688;2023-06-19T17:08:04;29.21;29.41
69464;DHT22;56665;41.106;16.688;2023-06-19T17:11:08;29.15;29.10
69464;DHT22;56665;41.106;16.688;2023-06-19T17:14:13;29.11;29.81
69464;DHT22;56665;41.106;16.688;2023-06-19T17:17:16;29.03;30.00
69464;DHT22;56665;41.106;16.688;2023-06-19T17:20:20;28.96;30.17
69464;DHT22;56665;41.106;16.688;2023-06-19T17:23:24;28.91;29.92
69464;DHT22;56665;41.106;16.688;2023-06-19T17:26:29;28.80;30.19
69464;DHT22;56665;41.106;16.688;2023-06-19T17:29:33;28.73;30.50
69464;DHT22;56665;41.106;16.688;2023-06-19T17:32:42;28.69;30.02
69464;DHT22;56665;41.106;16.688;2023-06-19T17:35:49;28.62;30.31
69464;DHT22;56665;41.106;16.688;2023-06-19T17:38:54;28.53;30.35
69464;DHT22;56665;41.106;16.688;2023-06-19T17:41:58;28.55;30.05
69464;DHT22;56665;41.106;16.688;2023-06-19T17:45:02;28.48;29.55
69464;DHT22;56665;41.106;16.688;2023-06-19T17:48:08;28.43;29.96
69464;DHT22;56665;41.106;16.688;2023-06-19T17:51:12;28.39;29.79
69464;DHT22;56665;41.106;16.688;2023-06-19T17:54:17;28.33;29.96
69464;DHT22;56665;41.106;16.688;2023-06-19T17:57:21;28.33;29.77
69464;DHT22;56665;41.106;16.688;2023-06-19T18:00:24;28.31;29.12
69464;DHT22;56665;41.106;16.688;2023-06-19T18:03:30;28.28;28.45
69464;DHT22;56665;41.106;16.688;2023-06-19T18:06:33;28.27;28.30
69464;DHT22;56665;41.106;16.688;2023-06-19T18:09:37;28.19;28.41
69464;DHT22;56665;41.106;16.688;2023-06-19T18:12:41;28.11;28.78
69464;DHT22;56665;41.106;16.688;2023-06-19T18:15:46;28.04;28.89
69464;DHT22;56665;41.106;16.688;2023-06-19T18:18:50;27.98;28.77
69464;DHT22;56665;41.106;16.688;2023-06-19T18:21:54;27.92;29.00
69464;DHT22;56665;41.106;16.688;2023-06-19T18:24:57;27.82;29.81
69464;DHT22;56665;41.106;16.688;2023-06-19T18:28:03;27.78;30.01
69464;DHT22;56665;41.106;16.688;2023-06-19T18:31:07;27.69;30.15
69464;DHT22;56665;41.106;16.688;2023-06-19T18:34:11;27.63;30.98
69464;DHT22;56665;41.106;16.688;2023-06-19T18:37:18;27.49;30.80
69464;DHT22;56665;41.106;16.688;2023-06-19T18:40:22;27.45;31.64
69464;DHT22;56665;41.106;16.688;2023-06-19T18:43:25;27.36;31.75
69464;DHT22;56665;41.106;16.688;2023-06-19T18:46:29;27.27;31.41
69464;DHT22;56665;41.106;16.688;2023-06-19T18:49:34;27.23;32.02
69464;DHT22;56665;41.106;16.688;2023-06-19T18:52:38;27.19;32.29
69464;DHT22;56665;41.106;16.688;2023-06-19T18:55:43;27.11;32.44
69464;DHT22;56665;41.106;16.688;2023-06-19T18:58:47;27.06;33.71
69464;DHT22;56665;41.106;16.688;2023-06-19T19:01:52;27.01;34.96
69464;DHT22;56665;41.106;16.688;2023-06-19T19:04:55;26.91;36.10
69464;DHT22;56665;41.106;16.688;2023-06-19T19:07:59;26.84;37.01